createdAt,value
2022-11-29T00:01:21.628Z,27.70
2022-11-29T00:03:49.335Z,26.27
2022-11-29T00:21:12.872Z,25.07
2022-11-29T00:23:40.257Z,25.17
2022-11-29T00:26:07.680Z,27.60
2022-11-29T00:28:35.495Z,26.33
2022-11-29T00:31:23.051Z,26.30
2022-11-29T00:33:50.734Z,27.33
2022-11-29T00:36:18.057Z,25.57
2022-11-29T00:38:45.787Z,25.03
2022-11-29T00:41:13.465Z,26.33
2022-11-29T00:43:40.798Z,27.13
2022-11-29T00:46:08.715Z,26.40
2022-11-29T00:48:36.459Z,26.17
2022-11-29T00:51:04.470Z,26.63
2022-11-29T00:53:32.082Z,28.30
2022-11-29T00:55:59.672Z,25.40
2022-11-29T00:58:27.440Z,27.30
2022-11-29T01:00:54.961Z,26.83
2022-11-29T01:03:22.760Z,26.37
2022-11-29T01:05:50.356Z,24.93
2022-11-29T01:08:17.742Z,25.93
2022-11-29T01:10:45.329Z,24.67
2022-11-29T01:13:12.694Z,26.27
2022-11-29T01:15:40.029Z,25.53
2022-11-29T01:18:07.643Z,26.60
2022-11-29T01:20:35.113Z,25.20
2022-11-29T01:23:02.448Z,23.83
2022-11-29T01:25:32.083Z,25.13
2022-11-29T01:27:59.667Z,23.47
2022-11-29T01:30:27.058Z,25.63
2022-11-29T01:32:55.686Z,25.30
2022-11-29T01:35:23.005Z,26.53
2022-11-29T01:37:50.354Z,26.13
2022-11-29T01:40:18.615Z,26.57
2022-11-29T01:42:45.988Z,25.13
2022-11-29T01:45:21.910Z,24.47
2022-11-29T01:47:49.553Z,22.10
2022-11-29T01:50:16.953Z,23.93
2022-11-29T01:52:44.307Z,22.23
2022-11-29T01:55:11.941Z,23.90
2022-11-29T01:57:40.497Z,23.83
2022-11-29T02:00:11.274Z,22.17
2022-11-29T02:02:55.790Z,21.90
2022-11-29T02:05:23.490Z,21.80
2022-11-29T02:07:52.981Z,21.53
2022-11-29T02:10:20.499Z,21.97
2022-11-29T02:12:58.954Z,22.13
2022-11-29T02:15:54.365Z,21.67
2022-11-29T02:18:59.201Z,22.48
2022-11-29T02:21:47.072Z,22.33
2022-11-29T02:24:14.498Z,21.87
2022-11-29T02:27:15.435Z,22.10
2022-11-29T02:30:01.319Z,22.60
2022-11-29T02:32:50.460Z,21.67
2022-11-29T02:35:36.256Z,22.03
2022-11-29T02:38:06.594Z,21.83
2022-11-29T02:40:52.562Z,21.00
2022-11-29T02:43:43.990Z,21.90
2022-11-29T02:46:43.728Z,21.83
2022-11-29T02:49:42.427Z,20.37
2022-11-29T02:52:17.770Z,20.07
2022-11-29T02:54:53.088Z,20.03
2022-11-29T02:57:29.472Z,22.03
2022-11-29T03:00:10.904Z,19.90
2022-11-29T03:02:40.812Z,19.70
2022-11-29T03:05:23.270Z,19.93
2022-11-29T03:08:15.808Z,20.30
2022-11-29T03:11:15.161Z,21.23
2022-11-29T03:13:46.007Z,22.47
2022-11-29T03:16:16.307Z,20.67
2022-11-29T03:18:58.408Z,18.97
2022-11-29T03:21:47.987Z,19.90
2022-11-29T03:24:20.176Z,19.90
2022-11-29T03:27:01.708Z,22.90
2022-11-29T03:29:41.043Z,20.23
2022-11-29T03:32:19.848Z,20.83
2022-11-29T03:34:54.328Z,20.73
2022-11-29T03:37:42.632Z,18.37
2022-11-29T03:40:16.047Z,19.23
2022-11-29T03:42:49.646Z,18.93
2022-11-29T03:45:29.393Z,19.00
2022-11-29T03:48:00.152Z,19.43
2022-11-29T03:50:33.404Z,18.87
2022-11-29T03:53:28.419Z,19.73
2022-11-29T03:56:00.838Z,18.43
2022-11-29T03:58:36.855Z,18.87
2022-11-29T04:01:35.652Z,17.15
2022-11-29T04:04:48.136Z,18.70
2022-11-29T04:07:21.377Z,18.43
2022-11-29T04:10:13.266Z,18.17
2022-11-29T04:12:51.690Z,16.50
2022-11-29T04:15:41.171Z,16.73
2022-11-29T04:18:14.541Z,16.37
2022-11-29T04:20:48.592Z,18.93
2022-11-29T04:23:30.581Z,16.73
2022-11-29T04:26:39.846Z,17.20
2022-11-29T04:29:10.092Z,16.83
2022-11-29T04:31:53.788Z,18.53
2022-11-29T04:34:44.107Z,17.93
2022-11-29T04:37:36.387Z,17.47
2022-11-29T04:40:22.242Z,19.97
2022-11-29T04:43:11.478Z,18.20
2022-11-29T04:45:47.332Z,18.03
2022-11-29T04:48:39.214Z,13.65
2022-11-29T04:51:15.979Z,19.03
2022-11-29T04:53:51.105Z,18.93
2022-11-29T04:56:43.275Z,19.90
2022-11-29T04:59:32.511Z,18.73
2022-11-29T05:02:37.305Z,18.30
2022-11-29T05:05:19.951Z,18.90
2022-11-29T05:08:14.572Z,18.33
2022-11-29T05:11:03.797Z,20.97
2022-11-29T05:14:00.452Z,20.53
2022-11-29T05:16:45.618Z,19.53
2022-11-29T05:19:34.615Z,20.23
2022-11-29T05:22:40.019Z,18.93
2022-11-29T05:25:25.894Z,19.48
2022-11-29T05:28:10.598Z,21.65
2022-11-29T05:31:04.087Z,19.00
2022-11-29T05:33:46.716Z,18.80
2022-11-29T05:36:23.008Z,17.90
2022-11-29T05:39:14.481Z,19.62
2022-11-29T05:42:03.326Z,19.70
2022-11-29T05:44:39.069Z,18.10
2022-11-29T05:47:10.184Z,18.73
2022-11-29T05:49:54.017Z,19.27
2022-11-29T05:52:50.954Z,18.20
2022-11-29T05:55:56.296Z,19.67
2022-11-29T05:58:30.500Z,13.98
2022-11-29T06:01:24.437Z,17.87
2022-11-29T06:04:14.724Z,18.50
2022-11-29T06:07:01.549Z,17.07
2022-11-29T06:09:41.467Z,20.83
2022-11-29T06:12:22.514Z,18.53
2022-11-29T06:15:10.507Z,20.40
2022-11-29T06:18:19.123Z,18.70
2022-11-29T06:20:52.756Z,18.30
2022-11-29T06:23:20.011Z,18.20
2022-11-29T06:26:03.699Z,18.40
2022-11-29T06:28:54.919Z,18.10
2022-11-29T06:31:28.680Z,19.33
2022-11-29T06:34:02.366Z,17.90
2022-11-29T06:36:52.995Z,17.70
2022-11-29T06:39:20.576Z,18.30
2022-11-29T06:41:48.895Z,17.80
2022-11-29T06:44:16.605Z,18.07
2022-11-29T06:46:45.962Z,17.93
2022-11-29T06:49:29.121Z,18.70
2022-11-29T06:52:50.356Z,17.60
2022-11-29T06:55:26.607Z,17.70
2022-11-29T06:58:09.821Z,18.02
2022-11-29T07:00:50.539Z,17.60
2022-11-29T07:03:29.815Z,19.70
2022-11-29T07:05:57.569Z,21.00
2022-11-29T07:08:25.421Z,18.70
2022-11-29T07:10:54.098Z,18.87
2022-11-29T07:13:21.973Z,19.43
2022-11-29T07:16:15.940Z,20.10
2022-11-29T07:19:10.990Z,19.97
2022-11-29T07:21:59.071Z,18.07
2022-11-29T07:24:52.044Z,19.07
2022-11-29T07:27:42.106Z,18.87
2022-11-29T07:30:33.453Z,18.63
2022-11-29T07:33:25.181Z,21.27
2022-11-29T07:36:15.503Z,18.67
2022-11-29T07:39:17.887Z,19.57
2022-11-29T07:42:18.296Z,21.33
2022-11-29T07:44:55.345Z,21.33
2022-11-29T07:47:22.930Z,22.90
2022-11-29T07:49:50.251Z,21.07
2022-11-29T07:52:17.755Z,21.97
2022-11-29T07:54:45.597Z,21.87
2022-11-29T07:57:13.387Z,21.00
2022-11-29T07:59:40.816Z,20.70
2022-11-29T08:02:11.966Z,20.07
2022-11-29T08:04:46.050Z,20.80
2022-11-29T08:07:13.599Z,22.37
2022-11-29T08:09:41.208Z,22.13
2022-11-29T08:12:08.622Z,22.40
2022-11-29T08:14:35.981Z,21.53
2022-11-29T08:17:04.050Z,24.53
2022-11-29T08:19:31.415Z,22.80
2022-11-29T08:21:58.885Z,24.03
2022-11-29T08:24:26.880Z,21.73
2022-11-29T08:26:54.415Z,22.63
2022-11-29T08:29:21.733Z,22.17
2022-11-29T08:31:53.600Z,20.33
2022-11-29T08:34:21.873Z,22.13
2022-11-29T08:36:50.033Z,22.37
2022-11-29T08:39:17.457Z,21.20
2022-11-29T08:41:44.810Z,22.80
2022-11-29T08:44:12.397Z,25.63
2022-11-29T08:46:58.768Z,25.23
2022-11-29T08:49:26.373Z,22.40
2022-11-29T08:52:13.719Z,24.83
2022-11-29T08:54:42.626Z,24.17
2022-11-29T08:57:38.419Z,24.13
2022-11-29T08:59:57.792Z,25.10
2022-11-29T09:02:25.235Z,24.60
2022-11-29T09:04:52.646Z,23.33
2022-11-29T09:07:20.344Z,23.77
2022-11-29T09:09:48.365Z,23.53
2022-11-29T09:12:15.691Z,20.23
2022-11-29T09:14:43.689Z,20.80
2022-11-29T09:17:11.334Z,19.07
2022-11-29T09:19:38.770Z,23.70
2022-11-29T09:22:06.385Z,24.57
2022-11-29T09:24:33.812Z,23.40
2022-11-29T09:27:01.210Z,23.87
2022-11-29T09:29:29.149Z,23.67
2022-11-29T09:31:56.561Z,24.30
2022-11-29T09:34:23.911Z,23.93
2022-11-29T09:36:51.608Z,22.83
2022-11-29T09:39:19.029Z,22.33
2022-11-29T09:42:04.615Z,24.53
2022-11-29T09:44:59.667Z,22.73
2022-11-29T09:47:48.500Z,23.73
2022-11-29T09:50:25.421Z,24.57
2022-11-29T09:55:32.310Z,21.90
2022-11-29T10:00:27.343Z,24.43
2022-11-29T10:03:03.274Z,22.63
2022-11-29T10:06:05.462Z,24.33
2022-11-29T10:08:38.425Z,24.73
2022-11-29T10:11:18.302Z,23.13
2022-11-29T10:13:51.782Z,24.23
2022-11-29T10:16:36.243Z,24.17
2022-11-29T10:19:07.897Z,26.13
2022-11-29T10:21:36.709Z,25.53
2022-11-29T10:24:07.151Z,24.90
2022-11-29T10:26:35.638Z,25.63
2022-11-29T10:29:03.023Z,26.23
2022-11-29T10:31:36.055Z,25.30
2022-11-29T10:34:11.419Z,23.97
2022-11-29T10:36:43.355Z,26.00
2022-11-29T10:39:49.640Z,25.10
2022-11-29T10:42:37.587Z,26.27
2022-11-29T10:45:07.868Z,26.20
2022-11-29T10:47:35.713Z,26.23
2022-11-29T10:50:03.082Z,25.90
2022-11-29T10:52:30.441Z,27.93
2022-11-29T10:54:58.573Z,24.27
2022-11-29T10:57:26.101Z,25.57
2022-11-29T11:00:08.057Z,25.53
2022-11-29T11:02:35.666Z,24.60
2022-11-29T11:05:03.778Z,25.33
2022-11-29T11:07:35.701Z,26.13
2022-11-29T11:10:19.527Z,26.97
2022-11-29T11:13:03.840Z,25.70
2022-11-29T11:15:31.842Z,22.93
2022-11-29T11:18:04.942Z,23.70
2022-11-29T11:20:35.163Z,22.73
2022-11-29T11:23:26.756Z,25.27
2022-11-29T11:26:07.102Z,22.13
2022-11-29T11:28:51.703Z,22.90
2022-11-29T11:31:34.118Z,23.83
2022-11-29T11:34:24.647Z,23.27
2022-11-29T11:36:53.543Z,24.93
2022-11-29T11:39:22.636Z,25.37
2022-11-29T11:42:09.070Z,24.57
2022-11-29T11:44:49.892Z,24.37
2022-11-29T11:47:22.231Z,24.07
2022-11-29T11:49:56.558Z,25.10
2022-11-29T11:52:26.451Z,25.10
2022-11-29T11:54:55.558Z,26.23
2022-11-29T11:57:23.179Z,25.33
2022-11-29T11:59:50.877Z,24.17
2022-11-29T12:02:28.315Z,24.00
2022-11-29T12:04:58.776Z,24.30
2022-11-29T12:08:06.184Z,23.43
2022-11-29T12:10:28.765Z,23.40
2022-11-29T12:12:56.457Z,24.50
2022-11-29T12:15:26.927Z,22.73
2022-11-29T12:18:06.123Z,22.13
2022-11-29T12:20:36.751Z,22.17
2022-11-29T12:23:13.016Z,22.63
2022-11-29T12:28:20.537Z,22.75
2022-11-29T12:31:20.006Z,23.17
2022-11-29T12:33:57.541Z,25.00
2022-11-29T12:36:52.814Z,26.10
2022-11-29T12:39:41.443Z,24.30
2022-11-29T12:42:15.994Z,23.27
2022-11-29T12:44:53.044Z,24.50
2022-11-29T12:47:51.477Z,25.10
2022-11-29T12:50:26.246Z,24.53
2022-11-29T12:53:14.105Z,25.00
2022-11-29T12:56:00.203Z,24.70
2022-11-29T12:58:33.418Z,25.27
2022-11-29T13:01:20.997Z,26.17
2022-11-29T13:04:08.253Z,25.80
2022-11-29T13:07:07.929Z,25.67
2022-11-29T13:09:48.782Z,24.50
2022-11-29T13:12:33.137Z,26.37
2022-11-29T13:15:03.948Z,26.83
2022-11-29T13:17:43.823Z,26.23
2022-11-29T13:20:32.911Z,27.43
2022-11-29T13:24:07.391Z,27.93
2022-11-29T13:26:29.582Z,28.13
2022-11-29T13:28:57.080Z,26.77
2022-11-29T13:31:25.415Z,26.73
2022-11-29T13:33:58.832Z,28.80
2022-11-29T13:36:38.573Z,27.60
2022-11-29T13:39:24.460Z,28.27
2022-11-29T13:42:10.222Z,27.50
2022-11-29T13:44:50.459Z,29.60
2022-11-29T13:47:18.634Z,29.20
2022-11-29T13:49:55.187Z,28.23
2022-11-29T13:52:37.453Z,28.58
2022-11-29T13:55:18.643Z,29.73
2022-11-29T13:58:16.803Z,29.87
2022-11-29T14:00:45.172Z,29.37
2022-11-29T14:03:18.576Z,28.87
2022-11-29T14:05:46.733Z,26.90
2022-11-29T14:08:37.893Z,28.67
2022-11-29T14:11:16.544Z,28.00
2022-11-29T14:13:51.679Z,30.57
2022-11-29T14:16:39.821Z,29.60
2022-11-29T14:19:10.292Z,32.93
2022-11-29T14:21:59.188Z,29.30
2022-11-29T14:24:32.748Z,29.43
2022-11-29T14:27:06.001Z,29.97
2022-11-29T14:29:54.921Z,28.83
2022-11-29T14:32:46.542Z,28.10
2022-11-29T14:35:21.991Z,27.80
2022-11-29T14:38:05.902Z,28.13
2022-11-29T14:40:42.605Z,28.50
2022-11-29T14:43:21.151Z,29.80
2022-11-29T14:46:06.647Z,28.40
2022-11-29T14:48:34.051Z,27.77
2022-11-29T14:51:09.090Z,29.53
2022-11-29T14:53:36.823Z,29.20
2022-11-29T14:56:29.714Z,30.17
2022-11-29T14:59:34.477Z,30.13
2022-11-29T15:02:04.940Z,29.90
2022-11-29T15:04:35.664Z,27.07
2022-11-29T15:07:03.295Z,31.40
2022-11-29T15:09:30.655Z,28.47
2022-11-29T15:12:08.202Z,29.50
2022-11-29T15:14:51.288Z,28.23
2022-11-29T15:17:56.378Z,31.20
2022-11-29T15:20:58.135Z,31.05
2022-11-29T15:23:25.502Z,31.10
2022-11-29T15:25:54.625Z,30.83
2022-11-29T15:28:23.731Z,29.50
2022-11-29T15:31:00.360Z,32.97
2022-11-29T15:33:28.420Z,33.33
2022-11-29T15:36:20.250Z,31.10
2022-11-29T15:38:52.437Z,31.13
2022-11-29T15:41:30.203Z,29.73
2022-11-29T15:43:59.702Z,30.77
2022-11-29T15:46:28.450Z,31.27
2022-11-29T15:48:56.227Z,30.87
2022-11-29T15:51:31.177Z,30.47
2022-11-29T15:54:13.258Z,31.77
2022-11-29T15:56:44.212Z,31.70
2022-11-29T15:59:29.676Z,32.03
2022-11-29T16:01:58.492Z,29.90
2022-11-29T16:04:27.193Z,30.60
2022-11-29T16:06:54.637Z,31.50
2022-11-29T16:09:43.056Z,30.47
2022-11-29T16:12:19.729Z,32.37
2022-11-29T16:14:50.801Z,32.60
2022-11-29T16:17:19.367Z,32.80
2022-11-29T16:19:47.069Z,33.80
2022-11-29T16:22:17.496Z,34.17
2022-11-29T16:25:14.839Z,33.27
2022-11-29T16:27:42.381Z,32.87
2022-11-29T16:30:40.152Z,33.27
2022-11-29T16:33:12.611Z,30.80
2022-11-29T16:35:40.249Z,31.60
2022-11-29T16:38:07.608Z,31.10
2022-11-29T16:40:35.469Z,31.77
2022-11-29T16:43:02.970Z,33.30
2022-11-29T16:45:41.510Z,30.03
2022-11-29T16:48:30.007Z,29.47
2022-11-29T16:51:09.593Z,31.00
2022-11-29T16:53:38.216Z,30.53
2022-11-29T16:56:05.705Z,31.67
2022-11-29T16:58:34.025Z,33.30
2022-11-29T17:01:28.272Z,31.43
2022-11-29T17:03:59.566Z,31.83
2022-11-29T17:06:27.281Z,33.37
2022-11-29T17:08:55.720Z,31.97
2022-11-29T17:11:23.140Z,31.07
2022-11-29T17:13:50.997Z,33.63
2022-11-29T17:16:19.933Z,34.13
2022-11-29T17:18:47.489Z,32.03
2022-11-29T17:21:19.049Z,31.93
2022-11-29T17:23:46.475Z,31.00
2022-11-29T17:26:15.487Z,30.33
2022-11-29T17:28:47.116Z,30.67
2022-11-29T17:31:16.086Z,32.10
2022-11-29T17:33:43.729Z,31.50
2022-11-29T17:36:12.561Z,31.60
2022-11-29T17:38:40.762Z,31.30
2022-11-29T17:41:09.645Z,33.00
2022-11-29T17:43:37.427Z,30.37
2022-11-29T17:46:12.486Z,32.93
2022-11-29T17:48:40.457Z,30.10
2022-11-29T17:51:22.803Z,31.43
2022-11-29T17:53:55.677Z,34.03
2022-11-29T17:56:24.738Z,31.17
2022-11-29T17:58:55.566Z,33.27
2022-11-29T18:01:24.699Z,30.60
2022-11-29T18:03:53.649Z,32.87
2022-11-29T18:06:25.493Z,31.53
2022-11-29T18:08:57.617Z,32.00
2022-11-29T18:11:29.927Z,32.83
2022-11-29T18:13:58.014Z,31.30
2022-11-29T18:16:30.117Z,32.50
2022-11-29T18:19:02.497Z,30.07
2022-11-29T18:21:29.856Z,31.07
2022-11-29T18:23:58.937Z,31.77
2022-11-29T18:26:27.115Z,30.53
2022-11-29T18:28:54.908Z,30.40
2022-11-29T18:31:28.173Z,28.73
2022-11-29T18:33:57.785Z,29.57
2022-11-29T18:36:27.253Z,31.97
2022-11-29T18:38:58.625Z,31.60
2022-11-29T18:41:26.465Z,32.03
2022-11-29T18:44:00.837Z,31.17
2022-11-29T18:46:32.938Z,31.47
2022-11-29T18:49:01.072Z,30.93
2022-11-29T18:51:29.496Z,31.33
2022-11-29T18:53:57.502Z,31.80
2022-11-29T18:56:26.307Z,32.90
2022-11-29T18:58:58.957Z,32.17
2022-11-29T19:01:27.893Z,35.50
2022-11-29T19:03:56.852Z,32.80
2022-11-29T19:06:25.939Z,30.20
2022-11-29T19:08:53.428Z,32.67
2022-11-29T19:11:22.071Z,32.70
2022-11-29T19:13:53.491Z,31.77
2022-11-29T19:16:22.103Z,29.53
2022-11-29T19:18:53.973Z,36.20
2022-11-29T19:21:22.515Z,33.63
2022-11-29T19:23:53.930Z,33.13
2022-11-29T19:26:21.669Z,32.10
2022-11-29T19:28:49.552Z,30.63
2022-11-29T19:31:17.951Z,31.20
2022-11-29T19:33:45.748Z,33.63
2022-11-29T19:36:17.598Z,34.87
2022-11-29T19:38:48.804Z,32.60
2022-11-29T19:41:29.811Z,33.37
2022-11-29T19:43:58.199Z,31.83
2022-11-29T19:46:27.518Z,33.83
2022-11-29T19:48:56.012Z,34.77
2022-11-29T19:51:24.065Z,33.07
2022-11-29T19:53:53.033Z,29.50
2022-11-29T19:56:20.574Z,30.73
2022-11-29T19:58:48.959Z,31.97
2022-11-29T20:01:20.001Z,31.70
2022-11-29T20:03:47.735Z,31.90
2022-11-29T20:06:15.168Z,29.93
2022-11-29T20:08:42.844Z,33.57
2022-11-29T20:11:13.231Z,31.20
2022-11-29T20:13:41.240Z,30.87
2022-11-29T20:16:13.258Z,30.77
2022-11-29T20:18:48.729Z,31.60
2022-11-29T20:21:22.554Z,31.73
2022-11-29T20:23:54.010Z,30.60
2022-11-29T20:26:21.364Z,30.67
2022-11-29T20:28:48.710Z,30.07
2022-11-29T20:31:18.088Z,29.97
2022-11-29T20:33:46.439Z,31.57
2022-11-29T20:36:22.965Z,32.13
2022-11-29T20:39:28.914Z,29.80
2022-11-29T20:42:27.083Z,29.45
2022-11-29T20:44:56.380Z,28.90
2022-11-29T20:47:28.083Z,28.23
2022-11-29T20:49:56.160Z,30.67
2022-11-29T20:52:59.697Z,29.23
2022-11-29T20:55:27.325Z,28.90
2022-11-29T20:57:55.634Z,30.47
2022-11-29T21:00:23.123Z,28.13
2022-11-29T21:02:51.365Z,27.10
2022-11-29T21:05:19.393Z,26.90
2022-11-29T21:07:46.876Z,25.43
2022-11-29T21:10:17.538Z,25.17
2022-11-29T21:12:45.718Z,27.47
2022-11-29T21:15:14.070Z,25.37
2022-11-29T21:17:41.980Z,25.20
2022-11-29T21:20:14.147Z,25.67
2022-11-29T21:22:58.531Z,23.07
2022-11-29T21:25:44.815Z,22.70
2022-11-29T21:28:13.722Z,24.40
2022-11-29T21:30:41.529Z,24.07
2022-11-29T21:33:09.299Z,24.57
2022-11-29T21:35:39.733Z,23.07
2022-11-29T21:38:07.180Z,21.53
2022-11-29T21:40:34.606Z,21.30
2022-11-29T21:43:02.193Z,22.47
2022-11-29T21:45:29.548Z,21.73
2022-11-29T21:47:59.749Z,22.07
2022-11-29T21:50:27.356Z,20.90
2022-11-29T21:52:54.710Z,21.33
2022-11-29T21:55:22.088Z,19.63
2022-11-29T21:57:49.690Z,20.87
2022-11-29T22:00:17.458Z,20.57
2022-11-29T22:02:45.128Z,20.80
2022-11-29T22:05:12.534Z,19.57
2022-11-29T22:07:39.938Z,20.37
2022-11-29T22:10:13.168Z,19.63
2022-11-29T22:12:51.208Z,19.67
2022-11-29T22:15:24.447Z,19.53
2022-11-29T22:17:53.385Z,19.83
2022-11-29T22:20:21.076Z,18.33
2022-11-29T22:22:50.063Z,20.60
2022-11-29T22:25:17.604Z,19.87
2022-11-29T22:27:45.185Z,21.07
2022-11-29T22:30:12.785Z,19.70
2022-11-29T22:32:40.135Z,19.43
2022-11-29T22:35:08.138Z,19.83
2022-11-29T22:37:35.482Z,20.73
2022-11-29T22:40:02.838Z,19.37
2022-11-29T22:42:30.559Z,18.77
2022-11-29T22:44:57.896Z,19.00
2022-11-29T22:47:25.451Z,17.70
2022-11-29T22:49:53.048Z,17.63
2022-11-29T22:52:20.436Z,18.87
2022-11-29T22:54:47.948Z,17.77
2022-11-29T22:57:15.877Z,17.57
2022-11-29T22:59:43.261Z,17.93
2022-11-29T23:02:10.617Z,17.63
2022-11-29T23:04:38.226Z,18.60
2022-11-29T23:07:05.595Z,18.27
2022-11-29T23:09:32.904Z,17.97
2022-11-29T23:12:00.561Z,17.57
2022-11-29T23:14:27.875Z,16.23
2022-11-29T23:16:55.350Z,18.50
2022-11-29T23:19:23.002Z,17.60
2022-11-29T23:21:50.524Z,18.00
2022-11-29T23:24:17.854Z,16.93
2022-11-29T23:26:46.257Z,15.97
2022-11-29T23:29:15.325Z,18.50
2022-11-29T23:31:42.729Z,17.43
2022-11-29T23:34:10.380Z,16.63
2022-11-29T23:36:37.907Z,17.37
2022-11-29T23:39:06.725Z,16.80
2022-11-29T23:41:35.648Z,17.27
2022-11-29T23:44:06.230Z,15.93
2022-11-29T23:46:34.603Z,17.23
2022-11-29T23:49:01.920Z,16.27
2022-11-29T23:51:29.291Z,17.43
2022-11-29T23:53:56.923Z,16.70
2022-11-29T23:56:24.262Z,17.27
2022-11-29T23:58:51.579Z,16.80
